sensor_id;sensor_type;location;lat;lon;timestamp;pressure;altitude;pressure_sealevel;temperature;humidity
42761;BME280;31672;47.638;19.026;2023-03-20T00:03:57;100174.66;;;6.76;59.27
42761;BME280;31672;47.638;19.026;2023-03-20T00:09:00;100166.91;;;6.64;59.37
42761;BME280;31672;47.638;19.026;2023-03-20T00:14:12;100171.41;;;6.54;59.53
42761;BME280;31672;47.638;19.026;2023-03-20T00:19:26;100167.38;;;6.40;59.94
42761;BME280;31672;47.638;19.026;2023-03-20T00:24:29;100167.41;;;6.31;60.71
42761;BME280;31672;47.638;19.026;2023-03-20T00:29:33;100162.13;;;6.21;60.91
42761;BME280;31672;47.638;19.026;2023-03-20T00:34:36;100172.44;;;6.14;61.32
42761;BME280;31672;47.638;19.026;2023-03-20T00:39:40;100166.19;;;6.06;61.62
42761;BME280;31672;47.638;19.026;2023-03-20T00:44:54;100168.81;;;5.96;61.92
42761;BME280;31672;47.638;19.026;2023-03-20T00:49:57;100183.38;;;5.90;62.20
42761;BME280;31672;47.638;19.026;2023-03-20T00:55:01;100171.56;;;5.85;62.47
42761;BME280;31672;47.638;19.026;2023-03-20T01:00:23;100172.78;;;5.81;62.87
42761;BME280;31672;47.638;19.026;2023-03-20T01:05:27;100174.91;;;5.77;63.12
42761;BME280;31672;47.638;19.026;2023-03-20T01:10:31;100169.06;;;5.74;63.08
42761;BME280;31672;47.638;19.026;2023-03-20T01:15:35;100173.91;;;5.69;63.42
42761;BME280;31672;47.638;19.026;2023-03-20T01:20:39;100162.91;;;5.63;63.37
42761;BME280;31672;47.638;19.026;2023-03-20T01:25:42;100164.44;;;5.56;63.98
42761;BME280;31672;47.638;19.026;2023-03-20T01:30:46;100162.50;;;5.49;64.49
42761;BME280;31672;47.638;19.026;2023-03-20T01:35:50;100158.59;;;5.43;64.41
42761;BME280;31672;47.638;19.026;2023-03-20T01:41:12;100153.03;;;5.36;64.98
42761;BME280;31672;47.638;19.026;2023-03-20T01:46:27;100153.44;;;5.32;65.14
42761;BME280;31672;47.638;19.026;2023-03-20T01:51:32;100149.44;;;5.28;65.35
42761;BME280;31672;47.638;19.026;2023-03-20T01:56:45;100148.84;;;5.24;65.97
42761;BME280;31672;47.638;19.026;2023-03-20T02:01:50;100147.34;;;5.22;65.81
42761;BME280;31672;47.638;19.026;2023-03-20T02:06:53;100145.22;;;5.16;65.84
42761;BME280;31672;47.638;19.026;2023-03-20T02:11:56;100148.38;;;5.09;66.11
42761;BME280;31672;47.638;19.026;2023-03-20T02:17:06;100139.34;;;5.02;66.50
42761;BME280;31672;47.638;19.026;2023-03-20T02:28:27;100141.28;;;5.00;66.20
42761;BME280;31672;47.638;19.026;2023-03-20T02:49:55;100136.75;;;4.72;67.69
42761;BME280;31672;47.638;19.026;2023-03-20T02:55:26;100133.94;;;4.64;67.29
42761;BME280;31672;47.638;19.026;2023-03-20T03:00:38;100126.97;;;4.53;67.50
42761;BME280;31672;47.638;19.026;2023-03-20T03:05:52;100132.16;;;4.43;68.10
42761;BME280;31672;47.638;19.026;2023-03-20T03:11:06;100132.13;;;4.34;68.21
42761;BME280;31672;47.638;19.026;2023-03-20T03:16:16;100130.16;;;4.26;68.42
42761;BME280;31672;47.638;19.026;2023-03-20T03:21:22;100124.59;;;4.29;68.85
42761;BME280;31672;47.638;19.026;2023-03-20T03:26:29;100124.38;;;4.32;68.13
42761;BME280;31672;47.638;19.026;2023-03-20T03:31:36;100117.00;;;4.26;68.14
42761;BME280;31672;47.638;19.026;2023-03-20T03:42:11;100118.28;;;4.11;68.11
42761;BME280;31672;47.638;19.026;2023-03-20T03:47:23;100128.16;;;3.97;68.64
42761;BME280;31672;47.638;19.026;2023-03-20T03:52:28;100133.44;;;3.86;69.67
42761;BME280;31672;47.638;19.026;2023-03-20T04:02:48;100146.91;;;3.72;70.13
42761;BME280;31672;47.638;19.026;2023-03-20T04:07:55;100149.91;;;3.67;70.18
42761;BME280;31672;47.638;19.026;2023-03-20T04:13:01;100147.63;;;3.63;70.52
42761;BME280;31672;47.638;19.026;2023-03-20T04:18:04;100160.19;;;3.59;70.42
42761;BME280;31672;47.638;19.026;2023-03-20T04:23:07;100158.88;;;3.54;70.79
42761;BME280;31672;47.638;19.026;2023-03-20T04:28:10;100161.91;;;3.49;71.44
42761;BME280;31672;47.638;19.026;2023-03-20T04:33:13;100169.19;;;3.45;71.12
42761;BME280;31672;47.638;19.026;2023-03-20T04:38:17;100173.13;;;3.40;71.26
42761;BME280;31672;47.638;19.026;2023-03-20T04:43:21;100171.97;;;3.33;71.49
42761;BME280;31672;47.638;19.026;2023-03-20T04:48:24;100176.50;;;3.31;72.34
42761;BME280;31672;47.638;19.026;2023-03-20T04:53:29;100171.13;;;3.32;72.21
42761;BME280;31672;47.638;19.026;2023-03-20T04:58:32;100175.69;;;3.30;71.71
42761;BME280;31672;47.638;19.026;2023-03-20T05:03:37;100181.63;;;3.32;71.82
42761;BME280;31672;47.638;19.026;2023-03-20T05:08:41;100171.13;;;3.32;71.82
42761;BME280;31672;47.638;19.026;2023-03-20T05:13:44;100185.78;;;3.35;72.19
42761;BME280;31672;47.638;19.026;2023-03-20T05:18:47;100189.16;;;3.37;72.41
42761;BME280;31672;47.638;19.026;2023-03-20T05:23:50;100178.16;;;3.43;72.85
42761;BME280;31672;47.638;19.026;2023-03-20T05:28:53;100182.66;;;3.52;73.22
42761;BME280;31672;47.638;19.026;2023-03-20T05:33:57;100193.84;;;3.65;73.15
42761;BME280;31672;47.638;19.026;2023-03-20T05:39:00;100185.94;;;3.76;73.80
42761;BME280;31672;47.638;19.026;2023-03-20T05:44:03;100190.19;;;3.89;73.21
42761;BME280;31672;47.638;19.026;2023-03-20T05:49:07;100192.66;;;4.01;73.16
42761;BME280;31672;47.638;19.026;2023-03-20T05:54:10;100187.09;;;4.16;73.27
42761;BME280;31672;47.638;19.026;2023-03-20T05:59:13;100194.53;;;4.32;72.70
42761;BME280;31672;47.638;19.026;2023-03-20T06:04:16;100202.69;;;4.49;72.65
42761;BME280;31672;47.638;19.026;2023-03-20T06:09:19;100208.19;;;4.67;72.49
42761;BME280;31672;47.638;19.026;2023-03-20T06:14:22;100200.00;;;4.91;72.15
42761;BME280;31672;47.638;19.026;2023-03-20T06:19:25;100211.94;;;5.26;72.39
42761;BME280;31672;47.638;19.026;2023-03-20T06:24:29;100209.44;;;5.64;72.00
42761;BME280;31672;47.638;19.026;2023-03-20T06:29:32;100215.06;;;6.00;71.58
42761;BME280;31672;47.638;19.026;2023-03-20T06:34:35;100210.63;;;6.30;70.51
42761;BME280;31672;47.638;19.026;2023-03-20T06:39:39;100214.75;;;6.61;69.05
42761;BME280;31672;47.638;19.026;2023-03-20T06:44:43;100209.81;;;6.86;68.02
42761;BME280;31672;47.638;19.026;2023-03-20T06:49:46;100217.66;;;7.15;67.32
42761;BME280;31672;47.638;19.026;2023-03-20T06:54:49;100223.88;;;7.51;66.34
42761;BME280;31672;47.638;19.026;2023-03-20T06:59:53;100222.28;;;7.86;65.77
42761;BME280;31672;47.638;19.026;2023-03-20T07:04:56;100224.47;;;8.26;64.66
42761;BME280;31672;47.638;19.026;2023-03-20T07:09:59;100215.22;;;8.66;63.39
42761;BME280;31672;47.638;19.026;2023-03-20T07:15:03;100213.44;;;9.00;62.49
42761;BME280;31672;47.638;19.026;2023-03-20T07:20:08;100205.47;;;9.34;60.90
42761;BME280;31672;47.638;19.026;2023-03-20T07:25:11;100208.44;;;9.65;60.00
42761;BME280;31672;47.638;19.026;2023-03-20T07:30:16;100210.78;;;10.01;58.82
42761;BME280;31672;47.638;19.026;2023-03-20T07:35:21;100205.06;;;10.38;57.73
42761;BME280;31672;47.638;19.026;2023-03-20T07:40:24;100205.69;;;10.65;56.40
42761;BME280;31672;47.638;19.026;2023-03-20T07:45:27;100198.03;;;10.86;55.36
42761;BME280;31672;47.638;19.026;2023-03-20T07:50:31;100197.78;;;11.12;54.86
42761;BME280;31672;47.638;19.026;2023-03-20T07:55:34;100205.94;;;11.50;54.43
42761;BME280;31672;47.638;19.026;2023-03-20T08:00:37;100203.28;;;11.89;53.90
42761;BME280;31672;47.638;19.026;2023-03-20T08:05:40;100208.31;;;12.30;53.02
42761;BME280;31672;47.638;19.026;2023-03-20T08:10:44;100200.91;;;12.78;51.25
42761;BME280;31672;47.638;19.026;2023-03-20T08:15:47;100195.09;;;13.04;49.78
42761;BME280;31672;47.638;19.026;2023-03-20T08:20:50;100207.19;;;13.44;50.04
42761;BME280;31672;47.638;19.026;2023-03-20T08:25:53;100205.50;;;13.79;48.49
42761;BME280;31672;47.638;19.026;2023-03-20T08:30:56;100205.19;;;14.04;46.20
42761;BME280;31672;47.638;19.026;2023-03-20T08:35:59;100206.19;;;14.24;46.75
42761;BME280;31672;47.638;19.026;2023-03-20T08:41:03;100197.22;;;14.53;45.24
42761;BME280;31672;47.638;19.026;2023-03-20T08:46:06;100200.63;;;14.96;44.65
42761;BME280;31672;47.638;19.026;2023-03-20T08:51:10;100207.81;;;15.31;43.94
42761;BME280;31672;47.638;19.026;2023-03-20T08:56:13;100207.63;;;15.73;43.44
42761;BME280;31672;47.638;19.026;2023-03-20T09:01:16;100209.16;;;16.02;41.14
42761;BME280;31672;47.638;19.026;2023-03-20T09:06:19;100213.28;;;16.25;39.76
42761;BME280;31672;47.638;19.026;2023-03-20T09:11:23;100213.72;;;16.48;38.51
42761;BME280;31672;47.638;19.026;2023-03-20T09:16:26;100210.25;;;16.88;37.93
42761;BME280;31672;47.638;19.026;2023-03-20T09:21:29;100200.06;;;17.03;36.50
42761;BME280;31672;47.638;19.026;2023-03-20T09:26:32;100203.56;;;17.23;36.75
42761;BME280;31672;47.638;19.026;2023-03-20T09:31:36;100204.06;;;17.58;36.96
42761;BME280;31672;47.638;19.026;2023-03-20T09:36:40;100192.63;;;17.76;36.18
42761;BME280;31672;47.638;19.026;2023-03-20T09:41:50;100192.47;;;18.03;35.78
42761;BME280;31672;47.638;19.026;2023-03-20T09:52:31;100186.34;;;18.45;35.16
42761;BME280;31672;47.638;19.026;2023-03-20T09:57:42;100179.84;;;18.85;33.99
42761;BME280;31672;47.638;19.026;2023-03-20T10:02:59;100172.66;;;19.15;33.01
42761;BME280;31672;47.638;19.026;2023-03-20T10:08:06;100177.66;;;19.30;32.13
42761;BME280;31672;47.638;19.026;2023-03-20T10:19:22;100180.97;;;19.50;31.61
42761;BME280;31672;47.638;19.026;2023-03-20T10:24:39;100184.84;;;19.36;30.81
42761;BME280;31672;47.638;19.026;2023-03-20T10:41:18;100170.03;;;19.64;31.11
42761;BME280;31672;47.638;19.026;2023-03-20T10:46:29;100163.44;;;19.90;30.64
42761;BME280;31672;47.638;19.026;2023-03-20T10:51:55;100157.72;;;19.98;30.76
42761;BME280;31672;47.638;19.026;2023-03-20T10:57:03;100154.13;;;20.04;30.55
42761;BME280;31672;47.638;19.026;2023-03-20T11:02:13;100151.34;;;20.34;29.80
42761;BME280;31672;47.638;19.026;2023-03-20T11:07:33;100151.16;;;20.47;29.02
42761;BME280;31672;47.638;19.026;2023-03-20T11:12:43;100139.13;;;20.20;28.80
42761;BME280;31672;47.638;19.026;2023-03-20T11:18:05;100136.19;;;20.10;29.24
42761;BME280;31672;47.638;19.026;2023-03-20T11:23:18;100131.00;;;19.66;29.58
42761;BME280;31672;47.638;19.026;2023-03-20T11:28:36;100127.25;;;19.37;30.01
42761;BME280;31672;47.638;19.026;2023-03-20T11:39:15;100119.34;;;19.36;30.48
42761;BME280;31672;47.638;19.026;2023-03-20T11:44:33;100112.97;;;19.48;30.75
42761;BME280;31672;47.638;19.026;2023-03-20T11:49:56;100115.56;;;19.55;30.08
42761;BME280;31672;47.638;19.026;2023-03-20T11:55:03;100110.88;;;19.50;30.37
42761;BME280;31672;47.638;19.026;2023-03-20T12:00:22;100111.50;;;19.34;30.30
42761;BME280;31672;47.638;19.026;2023-03-20T12:05:34;100114.75;;;19.06;30.65
42761;BME280;31672;47.638;19.026;2023-03-20T12:10:41;100098.66;;;19.18;31.38
42761;BME280;31672;47.638;19.026;2023-03-20T12:15:53;100088.03;;;19.53;30.81
42761;BME280;31672;47.638;19.026;2023-03-20T12:21:11;100087.06;;;19.47;30.12
42761;BME280;31672;47.638;19.026;2023-03-20T12:31:56;100082.25;;;19.38;32.18
42761;BME280;31672;47.638;19.026;2023-03-20T12:37:00;100077.16;;;19.30;32.11
42761;BME280;31672;47.638;19.026;2023-03-20T12:48:09;100075.72;;;18.79;33.49
42761;BME280;31672;47.638;19.026;2023-03-20T13:20:56;100046.09;;;18.17;34.97
42761;BME280;31672;47.638;19.026;2023-03-20T13:26:31;100037.06;;;18.11;35.29
42761;BME280;31672;47.638;19.026;2023-03-20T13:42:56;100025.84;;;18.76;34.67
42761;BME280;31672;47.638;19.026;2023-03-20T13:58:58;100021.91;;;19.09;33.50
42761;BME280;31672;47.638;19.026;2023-03-20T14:04:13;100028.44;;;19.01;33.92
42761;BME280;31672;47.638;19.026;2023-03-20T14:14:48;100029.47;;;18.63;34.65
42761;BME280;31672;47.638;19.026;2023-03-20T14:19:53;100025.78;;;18.21;36.15
42761;BME280;31672;47.638;19.026;2023-03-20T14:25:07;100022.91;;;17.98;36.01
42761;BME280;31672;47.638;19.026;2023-03-20T14:51:46;100012.88;;;19.33;35.11
42761;BME280;31672;47.638;19.026;2023-03-20T14:56:51;100007.78;;;19.25;35.17
42761;BME280;31672;47.638;19.026;2023-03-20T15:02:01;100014.09;;;18.89;35.51
42761;BME280;31672;47.638;19.026;2023-03-20T15:07:37;100004.16;;;18.71;36.73
42761;BME280;31672;47.638;19.026;2023-03-20T15:12:42;100002.63;;;18.93;35.95
42761;BME280;31672;47.638;19.026;2023-03-20T15:17:46;99994.25;;;19.02;36.56
42761;BME280;31672;47.638;19.026;2023-03-20T15:28:00;99986.84;;;19.27;36.62
42761;BME280;31672;47.638;19.026;2023-03-20T15:33:03;99993.31;;;19.26;36.45
42761;BME280;31672;47.638;19.026;2023-03-20T15:38:07;99997.00;;;19.13;36.48
42761;BME280;31672;47.638;19.026;2023-03-20T15:43:22;99999.13;;;18.93;36.58
42761;BME280;31672;47.638;19.026;2023-03-20T15:48:26;100002.81;;;18.62;37.64
42761;BME280;31672;47.638;19.026;2023-03-20T15:53:33;100000.94;;;18.26;38.32
42761;BME280;31672;47.638;19.026;2023-03-20T15:58:40;100006.59;;;17.92;38.95
42761;BME280;31672;47.638;19.026;2023-03-20T16:03:43;100003.59;;;17.57;39.46
42761;BME280;31672;47.638;19.026;2023-03-20T16:09:04;100002.38;;;17.22;40.34
42761;BME280;31672;47.638;19.026;2023-03-20T16:14:21;100010.41;;;16.83;41.06
42761;BME280;31672;47.638;19.026;2023-03-20T16:19:26;100023.69;;;16.52;41.84
42761;BME280;31672;47.638;19.026;2023-03-20T16:24:35;100016.56;;;16.19;42.79
42761;BME280;31672;47.638;19.026;2023-03-20T16:29:46;100020.69;;;15.89;43.33
42761;BME280;31672;47.638;19.026;2023-03-20T16:34:57;100026.06;;;15.62;43.89
42761;BME280;31672;47.638;19.026;2023-03-20T16:45:39;100044.28;;;15.19;44.27
42761;BME280;31672;47.638;19.026;2023-03-20T16:50:53;100048.69;;;14.92;44.65
42761;BME280;31672;47.638;19.026;2023-03-20T16:56:02;100045.31;;;14.70;44.92
42761;BME280;31672;47.638;19.026;2023-03-20T17:01:21;100043.16;;;14.52;45.31
42761;BME280;31672;47.638;19.026;2023-03-20T17:06:37;100042.38;;;14.30;45.96
42761;BME280;31672;47.638;19.026;2023-03-20T17:11:55;100048.22;;;14.12;46.80
42761;BME280;31672;47.638;19.026;2023-03-20T17:16:59;100047.41;;;13.90;47.14
42761;BME280;31672;47.638;19.026;2023-03-20T17:22:14;100049.78;;;13.79;47.83
42761;BME280;31672;47.638;19.026;2023-03-20T17:27:19;100051.31;;;13.66;48.28
42761;BME280;31672;47.638;19.026;2023-03-20T17:32:22;100047.50;;;13.54;48.65
42761;BME280;31672;47.638;19.026;2023-03-20T17:37:28;100052.34;;;13.44;49.34
42761;BME280;31672;47.638;19.026;2023-03-20T17:42:32;100053.69;;;13.33;49.63
42761;BME280;31672;47.638;19.026;2023-03-20T17:47:36;100060.34;;;13.23;49.99
42761;BME280;31672;47.638;19.026;2023-03-20T17:52:40;100054.25;;;13.14;50.36
42761;BME280;31672;47.638;19.026;2023-03-20T17:57:43;100067.53;;;13.07;50.61
42761;BME280;31672;47.638;19.026;2023-03-20T18:02:46;100073.97;;;12.98;51.04
42761;BME280;31672;47.638;19.026;2023-03-20T18:07:49;100078.00;;;12.94;51.44
42761;BME280;31672;47.638;19.026;2023-03-20T18:12:52;100074.44;;;12.87;51.51
42761;BME280;31672;47.638;19.026;2023-03-20T18:17:56;100074.34;;;12.80;51.92
42761;BME280;31672;47.638;19.026;2023-03-20T18:22:59;100080.25;;;12.76;52.35
42761;BME280;31672;47.638;19.026;2023-03-20T18:28:06;100086.31;;;12.70;52.41
42761;BME280;31672;47.638;19.026;2023-03-20T18:33:12;100069.78;;;12.59;52.90
42761;BME280;31672;47.638;19.026;2023-03-20T18:38:16;100074.84;;;12.54;53.18
42761;BME280;31672;47.638;19.026;2023-03-20T18:43:21;100078.22;;;12.48;53.71
42761;BME280;31672;47.638;19.026;2023-03-20T18:48:24;100072.06;;;12.48;53.83
42761;BME280;31672;47.638;19.026;2023-03-20T18:53:28;100081.06;;;12.47;54.50
42761;BME280;31672;47.638;19.026;2023-03-20T18:58:31;100083.56;;;12.48;54.36
42761;BME280;31672;47.638;19.026;2023-03-20T19:03:35;100086.66;;;12.52;54.42
42761;BME280;31672;47.638;19.026;2023-03-20T19:08:42;100090.34;;;12.51;54.41
42761;BME280;31672;47.638;19.026;2023-03-20T19:13:49;100088.16;;;12.54;54.52
42761;BME280;31672;47.638;19.026;2023-03-20T19:18:56;100083.00;;;12.53;54.40
42761;BME280;31672;47.638;19.026;2023-03-20T19:24:05;100088.50;;;12.51;54.68
42761;BME280;31672;47.638;19.026;2023-03-20T19:29:10;100088.91;;;12.48;54.88
42761;BME280;31672;47.638;19.026;2023-03-20T19:34:15;100089.88;;;12.47;55.27
42761;BME280;31672;47.638;19.026;2023-03-20T19:39:38;100086.03;;;12.50;55.67
42761;BME280;31672;47.638;19.026;2023-03-20T19:44:41;100085.22;;;12.49;55.64
42761;BME280;31672;47.638;19.026;2023-03-20T19:49:45;100084.84;;;12.52;56.12
42761;BME280;31672;47.638;19.026;2023-03-20T19:54:48;100080.25;;;12.61;55.88
42761;BME280;31672;47.638;19.026;2023-03-20T20:00:06;100084.38;;;12.64;55.76
42761;BME280;31672;47.638;19.026;2023-03-20T20:05:35;100086.41;;;12.62;56.17
42761;BME280;31672;47.638;19.026;2023-03-20T20:10:48;100081.19;;;12.53;56.16
42761;BME280;31672;47.638;19.026;2023-03-20T20:15:53;100083.38;;;12.50;56.31
42761;BME280;31672;47.638;19.026;2023-03-20T20:20:57;100085.75;;;12.45;56.34
42761;BME280;31672;47.638;19.026;2023-03-20T20:26:20;100085.03;;;12.36;56.50
42761;BME280;31672;47.638;19.026;2023-03-20T20:31:30;100093.81;;;12.22;56.62
42761;BME280;31672;47.638;19.026;2023-03-20T20:36:33;100083.66;;;12.02;56.94
42761;BME280;31672;47.638;19.026;2023-03-20T20:41:57;100093.72;;;11.92;57.46
42761;BME280;31672;47.638;19.026;2023-03-20T20:47:00;100090.88;;;11.71;57.87
42761;BME280;31672;47.638;19.026;2023-03-20T20:52:04;100093.03;;;11.44;58.81
42761;BME280;31672;47.638;19.026;2023-03-20T20:57:08;100097.69;;;11.19;59.47
42761;BME280;31672;47.638;19.026;2023-03-20T21:02:16;100100.25;;;11.05;60.09
42761;BME280;31672;47.638;19.026;2023-03-20T21:07:19;100090.81;;;10.94;60.99
42761;BME280;31672;47.638;19.026;2023-03-20T21:12:22;100085.38;;;10.87;61.72
42761;BME280;31672;47.638;19.026;2023-03-20T21:17:42;100085.34;;;10.95;62.09
42761;BME280;31672;47.638;19.026;2023-03-20T21:23:01;100090.78;;;11.02;62.92
42761;BME280;31672;47.638;19.026;2023-03-20T21:28:05;100087.53;;;11.23;63.50
42761;BME280;31672;47.638;19.026;2023-03-20T21:33:08;100098.34;;;11.52;63.23
42761;BME280;31672;47.638;19.026;2023-03-20T21:38:11;100091.53;;;11.73;62.77
42761;BME280;31672;47.638;19.026;2023-03-20T21:43:34;100087.75;;;11.90;62.14
42761;BME280;31672;47.638;19.026;2023-03-20T21:48:38;100095.88;;;11.97;61.55
42761;BME280;31672;47.638;19.026;2023-03-20T21:54:02;100101.19;;;11.97;61.58
42761;BME280;31672;47.638;19.026;2023-03-20T21:59:25;100104.38;;;11.92;61.64
42761;BME280;31672;47.638;19.026;2023-03-20T22:04:48;100116.13;;;11.83;61.65
42761;BME280;31672;47.638;19.026;2023-03-20T22:10:11;100124.09;;;11.83;61.87
42761;BME280;31672;47.638;19.026;2023-03-20T22:15:33;100122.44;;;11.82;61.75
42761;BME280;31672;47.638;19.026;2023-03-20T22:20:59;100115.25;;;11.60;62.51
42761;BME280;31672;47.638;19.026;2023-03-20T22:26:23;100115.84;;;11.39;63.42
42761;BME280;31672;47.638;19.026;2023-03-20T22:31:46;100104.50;;;11.22;64.13
42761;BME280;31672;47.638;19.026;2023-03-20T22:37:12;100103.81;;;11.20;65.88
42761;BME280;31672;47.638;19.026;2023-03-20T22:42:35;100100.13;;;11.29;66.08
42761;BME280;31672;47.638;19.026;2023-03-20T22:47:58;100092.28;;;11.36;66.32
42761;BME280;31672;47.638;19.026;2023-03-20T22:53:01;100107.34;;;11.43;65.86
42761;BME280;31672;47.638;19.026;2023-03-20T22:58:03;100109.69;;;11.46;65.84
42761;BME280;31672;47.638;19.026;2023-03-20T23:03:09;100097.53;;;11.44;65.89
42761;BME280;31672;47.638;19.026;2023-03-20T23:08:33;100111.03;;;11.42;65.94
42761;BME280;31672;47.638;19.026;2023-03-20T23:13:49;100108.25;;;11.36;66.13
42761;BME280;31672;47.638;19.026;2023-03-20T23:18:53;100113.44;;;11.29;66.25
42761;BME280;31672;47.638;19.026;2023-03-20T23:23:56;100112.28;;;11.23;66.79
42761;BME280;31672;47.638;19.026;2023-03-20T23:28:59;100111.50;;;11.15;66.80
42761;BME280;31672;47.638;19.026;2023-03-20T23:34:05;100113.00;;;11.09;67.07
42761;BME280;31672;47.638;19.026;2023-03-20T23:39:10;100106.72;;;11.02;67.21
42761;BME280;31672;47.638;19.026;2023-03-20T23:44:14;100108.63;;;10.93;67.59
42761;BME280;31672;47.638;19.026;2023-03-20T23:49:17;100106.97;;;10.84;68.34
42761;BME280;31672;47.638;19.026;2023-03-20T23:54:21;100098.84;;;10.86;69.01
42761;BME280;31672;47.638;19.026;2023-03-20T23:59:24;100099.97;;;10.91;68.93
